createdAt,value
2022-11-22T00:00:01.460Z,100810.97
2022-11-22T00:02:28.794Z,100805.53
2022-11-22T00:04:56.160Z,100806.66
2022-11-22T00:07:23.683Z,100801.69
2022-11-22T00:09:51.296Z,100803.84
2022-11-22T00:12:18.504Z,100808.97
2022-11-22T00:14:45.816Z,100808.28
2022-11-22T00:17:13.098Z,100803.84
2022-11-22T00:19:40.364Z,100802.19
2022-11-22T00:22:07.976Z,100804.16
2022-11-22T00:24:35.292Z,100812.13
2022-11-22T00:27:02.606Z,100819.81
2022-11-22T00:29:30.009Z,100809.16
2022-11-22T00:31:57.409Z,100797.84
2022-11-22T00:34:24.679Z,100801.09
2022-11-22T00:36:51.886Z,100806.47
2022-11-22T00:39:19.593Z,100808.38
2022-11-22T00:41:46.795Z,100809.53
2022-11-22T00:44:14.030Z,100816.50
2022-11-22T00:46:41.496Z,100812.63
2022-11-22T00:49:08.771Z,100803.47
2022-11-22T00:51:35.961Z,100804.00
2022-11-22T00:54:03.424Z,100802.84
2022-11-22T00:56:32.157Z,100803.28
2022-11-22T00:58:59.528Z,100805.09
2022-11-22T01:01:26.817Z,100797.31
2022-11-22T01:03:54.369Z,100791.16
2022-11-22T01:06:21.585Z,100793.47
2022-11-22T01:08:48.945Z,100793.44
2022-11-22T01:11:17.145Z,100795.00
2022-11-22T01:13:44.484Z,100797.63
2022-11-22T01:16:12.612Z,100791.63
2022-11-22T01:18:40.407Z,100788.97
2022-11-22T01:21:07.642Z,100789.56
2022-11-22T01:23:34.962Z,100797.31
2022-11-22T01:26:02.182Z,100796.41
2022-11-22T01:28:29.513Z,100794.50
2022-11-22T01:30:56.726Z,100789.69
2022-11-22T01:33:24.039Z,100789.03
2022-11-22T01:35:52.153Z,100790.72
2022-11-22T01:38:19.852Z,100788.66
2022-11-22T01:40:47.041Z,100793.03
2022-11-22T01:43:17.664Z,100791.88
2022-11-22T01:45:50.523Z,100795.78
2022-11-22T01:48:20.478Z,100785.00
2022-11-22T01:50:50.382Z,100789.13
2022-11-22T01:53:20.644Z,100789.97
2022-11-22T01:55:50.083Z,100787.34
2022-11-22T01:58:18.827Z,100783.44
2022-11-22T02:00:46.764Z,100778.28
2022-11-22T02:03:15.904Z,100784.00
2022-11-22T02:05:43.248Z,100784.28
2022-11-22T02:08:19.471Z,100785.88
2022-11-22T02:10:48.991Z,100781.38
2022-11-22T02:13:18.129Z,100785.50
2022-11-22T02:15:45.389Z,100784.50
2022-11-22T02:18:12.618Z,100784.88
2022-11-22T02:20:40.122Z,100786.19
2022-11-22T02:23:22.695Z,100786.84
2022-11-22T02:26:07.918Z,100792.06
2022-11-22T02:28:37.306Z,100799.38
2022-11-22T02:31:04.868Z,100796.59
2022-11-22T02:33:32.114Z,100802.47
2022-11-22T02:35:59.675Z,100802.28
2022-11-22T02:38:28.373Z,100796.97
2022-11-22T02:41:01.831Z,100796.09
2022-11-22T02:43:40.140Z,100807.19
2022-11-22T02:46:12.064Z,100812.94
2022-11-22T02:48:42.869Z,100803.09
2022-11-22T02:51:10.765Z,100812.63
2022-11-22T02:53:37.994Z,100807.31
2022-11-22T02:56:05.386Z,100812.28
2022-11-22T02:58:32.610Z,100815.84
2022-11-22T03:01:00.028Z,100808.44
2022-11-22T03:03:27.262Z,100816.22
2022-11-22T03:05:54.498Z,100829.81
2022-11-22T03:08:22.048Z,100833.09
2022-11-22T03:10:49.350Z,100827.69
2022-11-22T03:13:16.547Z,100835.09
2022-11-22T03:15:46.757Z,100821.09
2022-11-22T03:18:14.572Z,100826.63
2022-11-22T03:20:41.904Z,100822.94
2022-11-22T03:23:09.404Z,100826.38
2022-11-22T03:25:37.350Z,100828.63
2022-11-22T03:28:04.768Z,100827.00
2022-11-22T03:30:32.574Z,100827.53
2022-11-22T03:32:59.889Z,100828.09
2022-11-22T03:35:27.087Z,100828.53
2022-11-22T03:37:54.354Z,100829.13
2022-11-22T03:40:21.548Z,100830.38
2022-11-22T03:42:48.909Z,100828.94
2022-11-22T03:45:16.263Z,100833.22
2022-11-22T03:47:43.530Z,100831.47
2022-11-22T03:50:10.868Z,100836.69
2022-11-22T03:52:38.485Z,100834.91
2022-11-22T03:55:05.786Z,100836.00
2022-11-22T03:57:33.027Z,100831.03
2022-11-22T04:00:00.311Z,100833.47
2022-11-22T04:02:27.632Z,100834.88
2022-11-22T04:04:54.818Z,100843.00
2022-11-22T04:07:22.221Z,100844.19
2022-11-22T04:09:49.422Z,100841.41
2022-11-22T04:12:16.815Z,100840.03
2022-11-22T04:15:02.427Z,100847.22
2022-11-22T04:17:41.956Z,100844.69
2022-11-22T04:20:29.931Z,100842.31
2022-11-22T04:22:57.555Z,100850.69
2022-11-22T04:25:25.686Z,100843.81
2022-11-22T04:27:54.818Z,100842.16
2022-11-22T04:30:42.426Z,100840.56
2022-11-22T04:33:10.745Z,100830.78
2022-11-22T04:35:38.598Z,100830.91
2022-11-22T04:38:06.119Z,100829.59
2022-11-22T04:40:33.891Z,100835.59
2022-11-22T04:43:20.073Z,100828.63
2022-11-22T04:45:47.851Z,100826.97
2022-11-22T04:48:15.412Z,100830.81
2022-11-22T04:51:01.729Z,100833.09
2022-11-22T04:53:29.445Z,100838.03
2022-11-22T04:55:56.973Z,100841.66
2022-11-22T04:58:24.600Z,100844.16
2022-11-22T05:00:51.892Z,100846.09
2022-11-22T05:03:19.430Z,100842.94
2022-11-22T05:05:46.689Z,100853.28
2022-11-22T05:08:14.180Z,100830.50
2022-11-22T05:10:59.811Z,100841.00
2022-11-22T05:13:32.460Z,100843.00
2022-11-22T05:16:00.716Z,100843.63
2022-11-22T05:18:28.460Z,100846.28
2022-11-22T05:20:56.089Z,100841.00
2022-11-22T05:23:42.538Z,100847.34
2022-11-22T05:26:10.645Z,100852.25
2022-11-22T05:28:38.712Z,100844.69
2022-11-22T05:31:10.206Z,100834.91
2022-11-22T05:33:38.408Z,100834.03
2022-11-22T05:36:06.287Z,100839.94
2022-11-22T05:38:35.641Z,100834.94
2022-11-22T05:41:03.420Z,100844.69
2022-11-22T05:43:31.402Z,100843.16
2022-11-22T05:46:10.668Z,100837.19
2022-11-22T05:48:38.913Z,100839.22
2022-11-22T05:51:07.472Z,100837.97
2022-11-22T05:53:35.775Z,100845.84
2022-11-22T05:56:09.394Z,100847.28
2022-11-22T05:58:36.989Z,100847.19
2022-11-22T06:01:05.227Z,100847.59
2022-11-22T06:03:32.875Z,100850.00
2022-11-22T06:06:00.116Z,100851.31
2022-11-22T06:08:29.946Z,100842.13
2022-11-22T06:11:05.014Z,100852.09
2022-11-22T06:13:39.114Z,100847.34
2022-11-22T06:16:07.167Z,100847.97
2022-11-22T06:18:34.951Z,100853.59
2022-11-22T06:21:03.534Z,100852.69
2022-11-22T06:23:30.868Z,100858.09
2022-11-22T06:25:59.245Z,100860.25
2022-11-22T06:28:26.933Z,100864.03
2022-11-22T06:30:54.381Z,100858.53
2022-11-22T06:33:21.672Z,100869.22
2022-11-22T06:35:48.940Z,100873.00
2022-11-22T06:38:16.148Z,100871.59
2022-11-22T06:40:43.567Z,100869.28
2022-11-22T06:43:10.765Z,100868.88
2022-11-22T06:45:38.152Z,100878.13
2022-11-22T06:48:05.589Z,100877.09
2022-11-22T06:50:32.922Z,100876.72
2022-11-22T06:53:00.210Z,100886.81
2022-11-22T06:55:49.724Z,100887.69
2022-11-22T06:58:14.748Z,100884.97
2022-11-22T07:00:41.938Z,100895.84
2022-11-22T07:03:09.156Z,100904.41
2022-11-22T07:05:36.524Z,100894.59
2022-11-22T07:08:10.412Z,100901.41
2022-11-22T07:10:40.736Z,100903.25
2022-11-22T07:13:07.954Z,100909.13
2022-11-22T07:15:35.156Z,100911.47
2022-11-22T07:18:02.371Z,100907.75
2022-11-22T07:20:29.891Z,100904.63
2022-11-22T07:22:57.085Z,100900.50
2022-11-22T07:25:24.801Z,100907.75
2022-11-22T07:27:52.362Z,100904.38
2022-11-22T07:30:19.785Z,100907.44
2022-11-22T07:32:47.432Z,100902.88
2022-11-22T07:35:14.852Z,100906.84
2022-11-22T07:37:42.056Z,100914.50
2022-11-22T07:40:09.718Z,100913.31
2022-11-22T07:42:36.942Z,100908.91
2022-11-22T07:45:05.237Z,100915.16
2022-11-22T07:47:32.498Z,100921.63
2022-11-22T07:49:59.732Z,100926.47
2022-11-22T07:52:26.901Z,100927.69
2022-11-22T07:54:54.268Z,100934.50
2022-11-22T07:57:21.468Z,100920.72
2022-11-22T07:59:48.691Z,100924.00
2022-11-22T08:02:15.902Z,100931.00
2022-11-22T08:04:43.389Z,100919.44
2022-11-22T08:07:10.716Z,100917.00
2022-11-22T08:09:38.267Z,100923.63
2022-11-22T08:12:05.551Z,100929.72
2022-11-22T08:14:32.900Z,100928.19
2022-11-22T08:17:00.159Z,100931.13
2022-11-22T08:19:28.152Z,100942.34
2022-11-22T08:21:58.682Z,100949.06
2022-11-22T08:24:26.219Z,100943.84
2022-11-22T08:26:53.638Z,100962.09
2022-11-22T08:29:21.147Z,100971.34
2022-11-22T08:31:48.402Z,100977.09
2022-11-22T08:34:15.872Z,100986.53
2022-11-22T08:36:43.199Z,100976.16
2022-11-22T08:39:10.563Z,100966.81
2022-11-22T08:41:37.757Z,100969.59
2022-11-22T08:44:05.327Z,100977.97
2022-11-22T08:46:32.596Z,100972.63
2022-11-22T08:49:00.042Z,100967.84
2022-11-22T08:51:27.254Z,100966.41
2022-11-22T08:53:54.509Z,100980.22
2022-11-22T08:56:21.719Z,100977.66
2022-11-22T08:58:49.189Z,100973.31
2022-11-22T09:01:17.712Z,100983.16
2022-11-22T09:03:45.222Z,100996.56
2022-11-22T09:11:48.658Z,101013.97
2022-11-22T09:14:16.106Z,101018.44
2022-11-22T09:16:43.569Z,101018.00
2022-11-22T09:19:10.833Z,101020.84
2022-11-22T09:21:38.257Z,101027.13
2022-11-22T09:24:05.696Z,101040.09
2022-11-22T09:26:33.219Z,101042.72
2022-11-22T09:29:00.547Z,101039.91
2022-11-22T09:31:27.789Z,101045.78
2022-11-22T09:33:54.993Z,101039.84
2022-11-22T09:36:23.662Z,101041.44
2022-11-22T09:38:51.352Z,101048.56
2022-11-22T09:41:36.946Z,101048.09
2022-11-22T09:44:10.244Z,101052.00
2022-11-22T09:46:56.315Z,101049.00
2022-11-22T09:49:42.227Z,101045.06
2022-11-22T09:52:12.649Z,101042.50
2022-11-22T09:54:55.762Z,101044.22
2022-11-22T09:57:28.488Z,101041.75
2022-11-22T10:00:07.865Z,101046.69
2022-11-22T10:02:59.494Z,101037.44
2022-11-22T10:05:33.606Z,101040.16
2022-11-22T10:08:18.041Z,101032.66
2022-11-22T10:10:45.365Z,101041.16
2022-11-22T10:13:17.191Z,101027.63
2022-11-22T10:15:56.332Z,101030.75
2022-11-22T10:18:31.705Z,101026.81
2022-11-22T10:20:59.102Z,101041.91
2022-11-22T10:23:26.871Z,101040.63
2022-11-22T10:26:03.247Z,101030.13
2022-11-22T10:28:42.727Z,101039.78
2022-11-22T10:31:36.555Z,101030.16
2022-11-22T10:34:15.886Z,101027.78
2022-11-22T10:37:00.289Z,101012.13
2022-11-22T10:39:32.927Z,101006.56
2022-11-22T10:42:10.364Z,100999.22
2022-11-22T10:44:40.755Z,100999.94
2022-11-22T10:47:10.734Z,101002.28
2022-11-22T10:49:37.997Z,101009.09
2022-11-22T10:52:14.665Z,101007.50
2022-11-22T10:54:44.934Z,101009.28
2022-11-22T10:57:18.973Z,100994.56
2022-11-22T11:00:02.380Z,101001.22
2022-11-22T11:02:34.263Z,101001.72
2022-11-22T11:05:04.574Z,101015.22
2022-11-22T11:07:32.036Z,101006.94
2022-11-22T11:10:26.396Z,101002.81
2022-11-22T11:12:49.372Z,101003.97
2022-11-22T11:15:21.946Z,100995.69
2022-11-22T11:18:12.236Z,100995.72
2022-11-22T11:20:42.006Z,100997.94
2022-11-22T11:23:15.235Z,100992.19
2022-11-22T11:25:44.368Z,100987.00
2022-11-22T11:28:32.019Z,100990.00
2022-11-22T11:31:07.913Z,100978.59
2022-11-22T11:33:39.132Z,100976.69
2022-11-22T11:36:06.574Z,100973.19
2022-11-22T11:38:43.114Z,100975.25
2022-11-22T11:41:29.246Z,100971.47
2022-11-22T11:43:58.349Z,100967.94
2022-11-22T11:46:26.608Z,100954.06
2022-11-22T11:48:55.136Z,100958.84
2022-11-22T11:51:24.864Z,100963.50
2022-11-22T11:53:55.184Z,100975.59
2022-11-22T11:56:28.844Z,100972.44
2022-11-22T11:58:57.149Z,100959.25
2022-11-22T12:01:25.194Z,100966.13
2022-11-22T12:03:57.339Z,100963.56
2022-11-22T12:06:28.997Z,100949.59
2022-11-22T12:08:57.655Z,100950.38
2022-11-22T12:11:47.633Z,100943.00
2022-11-22T12:14:20.321Z,100931.47
2022-11-22T12:16:50.257Z,100929.50
2022-11-22T12:19:36.560Z,100926.78
2022-11-22T12:22:48.317Z,100939.28
2022-11-22T12:25:34.763Z,100938.81
2022-11-22T12:28:22.670Z,100941.78
2022-11-22T12:30:55.099Z,100935.00
2022-11-22T12:33:29.524Z,100932.97
2022-11-22T12:35:57.691Z,100933.63
2022-11-22T12:38:28.063Z,100945.81
2022-11-22T12:40:57.451Z,100944.16
2022-11-22T12:43:27.208Z,100955.38
2022-11-22T12:45:56.673Z,100952.88
2022-11-22T12:48:30.029Z,100954.91
2022-11-22T12:51:02.422Z,100957.75
2022-11-22T12:53:35.069Z,100950.81
2022-11-22T12:56:09.214Z,100955.97
2022-11-22T12:58:45.319Z,100963.00
2022-11-22T13:01:33.296Z,100950.94
2022-11-22T13:04:12.979Z,100952.78
2022-11-22T13:06:57.383Z,100960.84
2022-11-22T13:09:33.568Z,100958.75
2022-11-22T13:12:10.041Z,100958.31
2022-11-22T13:14:44.613Z,100952.44
2022-11-22T13:17:12.706Z,100951.03
2022-11-22T13:19:49.415Z,100946.66
2022-11-22T13:22:28.654Z,100963.19
2022-11-22T13:25:04.734Z,100959.94
2022-11-22T13:27:35.127Z,100958.25
2022-11-22T13:30:02.952Z,100956.25
2022-11-22T13:32:34.774Z,100967.03
2022-11-22T13:35:16.828Z,100965.59
2022-11-22T13:37:49.435Z,100967.22
2022-11-22T13:40:16.737Z,100982.47
2022-11-22T13:42:43.907Z,100981.50
2022-11-22T13:45:20.865Z,100979.44
2022-11-22T13:47:48.420Z,100984.31
2022-11-22T13:50:34.392Z,100999.00
2022-11-22T13:53:21.285Z,100999.72
2022-11-22T13:55:48.676Z,100992.81
2022-11-22T13:58:25.022Z,100991.72
2022-11-22T14:00:53.381Z,100992.13
2022-11-22T14:03:33.595Z,100997.16
2022-11-22T14:06:01.423Z,100997.63
2022-11-22T14:08:28.631Z,101005.50
2022-11-22T14:10:55.840Z,101003.66
2022-11-22T14:13:48.308Z,100999.19
2022-11-22T14:16:15.528Z,101002.47
2022-11-22T14:18:48.947Z,100992.63
2022-11-22T14:21:34.913Z,100987.31
2022-11-22T14:24:11.387Z,100997.16
2022-11-22T14:26:58.942Z,100994.28
2022-11-22T14:29:38.603Z,101001.00
2022-11-22T14:32:19.515Z,101001.63
2022-11-22T14:35:04.746Z,101005.19
2022-11-22T14:37:32.129Z,101013.13
2022-11-22T14:40:02.471Z,101019.63
2022-11-22T14:42:35.474Z,101009.09
2022-11-22T14:45:05.122Z,101008.53
2022-11-22T14:47:34.195Z,101016.44
2022-11-22T14:50:04.301Z,101013.84
2022-11-22T14:52:32.598Z,101008.63
2022-11-22T14:55:06.187Z,101006.44
2022-11-22T14:57:36.816Z,101021.28
2022-11-22T15:00:07.496Z,101017.34
2022-11-22T15:02:53.231Z,101013.97
2022-11-22T15:09:18.824Z,101004.63
2022-11-22T15:09:21.291Z,101007.03
2022-11-22T15:11:44.719Z,101010.47
2022-11-22T15:14:30.738Z,101015.06
2022-11-22T15:59:41.400Z,101018.34
2022-11-22T16:02:16.611Z,101019.72
2022-11-22T16:06:10.195Z,101017.44
2022-11-22T16:07:43.531Z,101023.56
2022-11-22T16:10:25.779Z,101017.03
2022-11-22T16:12:53.379Z,101023.81
2022-11-22T16:15:26.511Z,101025.59
2022-11-22T16:18:05.712Z,101040.28
2022-11-22T16:20:33.763Z,101040.13
2022-11-22T16:23:10.123Z,101046.84
2022-11-22T16:25:38.786Z,101052.19
2022-11-22T16:28:18.311Z,101044.78
2022-11-22T16:30:46.312Z,101048.69
2022-11-22T16:33:13.514Z,101055.53
2022-11-22T16:35:41.079Z,101052.47
2022-11-22T16:38:08.264Z,101056.16
2022-11-22T16:40:42.817Z,101037.16
2022-11-22T16:43:14.288Z,101045.09
2022-11-22T16:45:41.647Z,101061.09
2022-11-22T16:48:34.342Z,101049.88
2022-11-22T16:51:03.263Z,101056.63
2022-11-22T16:53:36.456Z,101053.25
2022-11-22T16:56:03.894Z,101048.03
2022-11-22T16:58:31.342Z,101052.47
2022-11-22T17:00:58.734Z,101052.31
2022-11-22T17:03:27.330Z,101040.59
2022-11-22T17:05:54.688Z,101044.34
2022-11-22T17:08:21.926Z,101035.41
2022-11-22T17:10:50.144Z,101026.94
2022-11-22T17:13:18.736Z,101034.44
2022-11-22T17:15:46.668Z,101039.19
2022-11-22T17:18:14.454Z,101039.34
2022-11-22T17:20:41.718Z,101036.47
2022-11-22T17:23:16.959Z,101032.53
2022-11-22T17:25:44.325Z,101035.84
2022-11-22T17:28:11.659Z,101033.41
2022-11-22T17:30:38.917Z,101047.91
2022-11-22T17:33:06.260Z,101044.66
2022-11-22T17:35:37.047Z,101041.84
2022-11-22T17:38:05.569Z,101048.25
2022-11-22T17:40:32.862Z,101062.59
2022-11-22T17:43:01.571Z,101057.41
2022-11-22T17:45:29.215Z,101056.16
2022-11-22T17:47:56.564Z,101056.63
2022-11-22T17:50:23.806Z,101051.75
2022-11-22T17:52:51.795Z,101046.75
2022-11-22T17:55:19.104Z,101041.09
2022-11-22T17:57:47.251Z,101044.91
2022-11-22T18:00:17.070Z,101056.41
2022-11-22T18:02:44.411Z,101052.66
2022-11-22T18:05:12.098Z,101050.19
2022-11-22T18:07:39.862Z,101036.09
2022-11-22T18:10:07.855Z,101029.00
2022-11-22T18:12:42.232Z,101042.47
2022-11-22T18:15:10.468Z,101046.03
2022-11-22T18:17:37.660Z,101037.69
2022-11-22T18:20:05.233Z,101040.25
2022-11-22T18:22:32.467Z,101031.16
2022-11-22T18:25:01.086Z,101038.03
2022-11-22T18:27:28.384Z,101045.72
2022-11-22T18:29:56.066Z,101039.34
2022-11-22T18:32:23.460Z,101043.41
2022-11-22T18:34:50.832Z,101047.91
2022-11-22T18:37:18.151Z,101050.72
2022-11-22T18:39:45.405Z,101061.44
2022-11-22T18:42:14.136Z,101059.66
2022-11-22T18:44:42.207Z,101053.53
2022-11-22T18:47:09.871Z,101055.84
2022-11-22T18:49:37.477Z,101055.00
2022-11-22T18:52:05.158Z,101054.13
2022-11-22T18:54:32.935Z,101053.00
2022-11-22T18:57:00.450Z,101053.97
2022-11-22T18:59:27.961Z,101060.19
2022-11-22T19:01:55.657Z,101053.63
2022-11-22T19:04:22.985Z,101057.28
2022-11-22T19:06:50.390Z,101052.88
2022-11-22T19:09:17.638Z,101045.69
2022-11-22T19:11:44.890Z,101054.13
2022-11-22T19:14:12.231Z,101052.47
2022-11-22T19:16:39.529Z,101059.41
2022-11-22T19:19:08.206Z,101053.84
2022-11-22T19:21:35.732Z,101048.53
2022-11-22T19:24:03.139Z,101050.38
2022-11-22T19:26:30.392Z,101058.88
2022-11-22T19:28:59.757Z,101060.56
2022-11-22T19:31:29.160Z,101066.72
2022-11-22T19:33:57.274Z,101069.72
2022-11-22T19:36:32.229Z,101060.63
2022-11-22T19:39:00.744Z,101074.00
2022-11-22T19:41:28.082Z,101074.47
2022-11-22T19:43:55.909Z,101071.09
2022-11-22T19:46:23.600Z,101068.06
2022-11-22T19:48:52.050Z,101069.97
2022-11-22T19:51:19.576Z,101077.56
2022-11-22T19:53:46.810Z,101078.19
2022-11-22T19:56:15.357Z,101086.97
2022-11-22T19:58:43.271Z,101081.84
2022-11-22T20:01:11.613Z,101073.59
2022-11-22T20:03:39.898Z,101082.91
2022-11-22T20:06:08.560Z,101084.44
2022-11-22T20:08:36.014Z,101079.91
2022-11-22T20:11:04.503Z,101088.59
2022-11-22T20:13:33.737Z,101101.22
2022-11-22T20:16:05.309Z,101090.72
2022-11-22T20:18:32.694Z,101099.47
2022-11-22T20:21:01.922Z,101095.88
2022-11-22T20:23:30.160Z,101103.28
2022-11-22T20:26:01.372Z,101095.66
2022-11-22T20:28:28.803Z,101086.84
2022-11-22T20:31:12.806Z,101083.59
2022-11-22T20:33:41.787Z,101083.59
2022-11-22T20:36:10.586Z,101090.13
2022-11-22T20:38:39.067Z,101094.47
2022-11-22T20:41:07.063Z,101093.34
2022-11-22T20:43:35.261Z,101084.94
2022-11-22T20:46:21.309Z,101082.31
2022-11-22T20:48:48.795Z,101078.63
2022-11-22T20:51:17.464Z,101079.22
2022-11-22T20:53:45.024Z,101080.66
2022-11-22T20:56:12.739Z,101085.38
2022-11-22T20:58:40.171Z,101088.31
2022-11-22T21:01:08.662Z,101085.34
2022-11-22T21:03:35.974Z,101074.13
2022-11-22T21:06:03.845Z,101079.53
2022-11-22T21:08:32.693Z,101092.22
2022-11-22T21:11:07.139Z,101085.44
2022-11-22T21:13:34.596Z,101094.72
2022-11-22T21:16:06.272Z,101089.81
2022-11-22T21:18:43.063Z,101091.59
2022-11-22T21:21:11.216Z,101094.25
2022-11-22T21:23:39.288Z,101102.97
2022-11-22T21:26:07.230Z,101103.16
2022-11-22T21:28:35.460Z,101097.25
2022-11-22T21:31:03.343Z,101103.59
2022-11-22T21:33:32.850Z,101097.50
2022-11-22T21:36:01.096Z,101092.06
2022-11-22T21:38:31.296Z,101084.91
2022-11-22T21:41:17.123Z,101091.00
2022-11-22T21:43:50.651Z,101096.09
2022-11-22T21:46:20.417Z,101099.03
2022-11-22T21:48:51.827Z,101096.44
2022-11-22T21:51:19.479Z,101087.41
2022-11-22T21:53:46.696Z,101082.03
2022-11-22T21:56:14.005Z,101089.47
2022-11-22T21:58:42.104Z,101083.81
2022-11-22T22:01:14.021Z,101094.16
2022-11-22T22:03:41.866Z,101092.59
2022-11-22T22:06:09.070Z,101093.53
2022-11-22T22:08:36.703Z,101090.56
2022-11-22T22:11:05.468Z,101086.63
2022-11-22T22:13:33.050Z,101086.09
2022-11-22T22:16:01.223Z,101087.53
2022-11-22T22:18:32.900Z,101092.41
2022-11-22T22:21:07.707Z,101096.22
2022-11-22T22:23:36.021Z,101090.56
2022-11-22T22:26:04.600Z,101092.22
2022-11-22T22:28:32.639Z,101096.50
2022-11-22T22:31:03.315Z,101099.09
2022-11-22T22:33:30.583Z,101092.63
2022-11-22T22:35:58.312Z,101100.31
2022-11-22T22:38:25.709Z,101098.19
2022-11-22T22:40:56.587Z,101094.69
2022-11-22T22:43:24.113Z,101106.56
2022-11-22T22:45:51.951Z,101108.44
2022-11-22T22:48:19.403Z,101095.50
2022-11-22T22:50:46.572Z,101098.78
2022-11-22T22:53:14.226Z,101103.81
2022-11-22T22:55:41.398Z,101113.06
2022-11-22T22:58:12.073Z,101113.59
2022-11-22T23:00:39.797Z,101116.41
2022-11-22T23:03:07.031Z,101115.69
2022-11-22T23:05:34.358Z,101106.72
2022-11-22T23:08:01.668Z,101094.78
2022-11-22T23:10:28.883Z,101108.13
2022-11-22T23:12:56.078Z,101111.31
2022-11-22T23:15:43.896Z,101112.09
2022-11-22T23:18:10.568Z,101108.81
2022-11-22T23:20:37.971Z,101121.06
2022-11-22T23:23:05.285Z,101112.22
2022-11-22T23:25:32.656Z,101127.69
2022-11-22T23:28:00.171Z,101134.84
2022-11-22T23:30:27.390Z,101130.25
2022-11-22T23:32:54.650Z,101124.03
2022-11-22T23:35:22.091Z,101127.47
2022-11-22T23:37:49.295Z,101111.69
2022-11-22T23:40:16.606Z,101117.72
2022-11-22T23:42:43.952Z,101120.47
2022-11-22T23:45:11.107Z,101112.25
2022-11-22T23:47:38.419Z,101119.44
2022-11-22T23:50:05.772Z,101122.63
2022-11-22T23:52:32.967Z,101129.19
2022-11-22T23:55:00.245Z,101124.38
2022-11-22T23:57:27.503Z,101123.53
2022-11-22T23:59:54.703Z,101126.34
